Airfield :
LOGIN :

Register | Disclaimer

   EN    FR    IT 

 










Legend :    VFR   Marginal VFR   IFR   Intensive IFR   Very Intensive IFR
Visi :
Ceiling :
>= 8 km
>= 3000ft
5 to 8 km
1000 to 3000 ft
1500m to 5 km
500 to 1000 ft
800 to 1500m
200 to 500 ft
< 800m
< 200 ft
Symbols :   Thunderstorms  Fog  Heavy snow  Heavy precipitations  Wind > 20 kt
SIGMETs :     Misc.  Thunderstorms  Icing  Turbulence  Mountain Waves  Volcanic Ashes






- Airport Elevation : 286 ft
- IATA code : TRF


ENTO - Sandefjord , Torp

CURRENT METAR :
  • 250220Z AUTO VRB01KT 9999 OVC015/// 13/12 Q1013

EXPIRED METARs :
  • 250150Z AUTO 00000KT 9999 OVC016/// 13/11 Q1014
  • 250120Z AUTO 00000KT 9999 OVC015/// 13/11 Q1014
  • 250050Z AUTO 16003KT 9999 BKN017/// 13/11 Q1014
  • 250020Z AUTO 16004KT 9999 SCT017/// 12/11 Q1014
  • 242350Z AUTO 15003KT 9999 OVC016/// 13/11 Q1014

TAF TAF ENTO
Valid from the 25 at 00:00 until the 26 at 00:00 UTC


2500/2524 16008KT 9999 BKN015
PROB40 2500/2506 OVC008
BECMG 2508/2510 SCT015



MET'MAP, your aeronautical weather chart ! - Copyright ORBIFLY December 2007 - Disclaimer

ORBIFLY MET'MAP TEAM :

Programming & Development : Alexandra Zaïnal
Concept & original design : Baudouin d'Aumeries
Assistance for programming : Marc-Olivier Méhu
Technical & hardware support : Manuel Goepfert

Contact : metmap@orbifly.com




SOURCES & CREDITS :

   NOAA